Aviation Digital Data Service (ADDS)

Output produced by METARs form (1217 UTC 15 November 2018)
found at http://www.aviationweather.gov/metar/data/
 
MUSC 151100Z 1512/1612 VRB03KT 9000 SCT020 
     TEMPO 1512/1514 3000 BR 
     BECMG 1515/1517 02008KT 
     BECMG 1601/1603 VRB03KT
       
MUCU 151100Z 1512/1612 36005KT 9000 SCT020 
     BECMG 1515/1517 16008KT 
     BECMG 1601/1603 36005KT
       
MUHG 151100Z 1512/1612 VRB03KT 9000 SCT020 
     TEMPO 1512/1514 3000 BR 
     BECMG 1515/1517 12008KT 
     BECMG 1601/1603 VRB03KT
       
TAF COR MUGM 1508/1607 33006KT 9999 FEW025 SCT100 QNH2988INS 
     BECMG 1515/1517 16007KT 9999 VCSH BKN025 BKN100 QNH2983INS 
     BECMG 1521/1523 22010KT 9999 NSW SCT025 BKN100 QNH2992INS T24/1511Z
T32/1518Z COR 0832Z FN00106
       
MUCM 151100Z 1512/1612 VRB03KT 9000 SCT020 
     TEMPO 1512/1514 3000 BR 
     BECMG 1515/1517 03008KT 
     BECMG 1601/1603 VRB03KT
       
MUCF 151100Z 1512/1524 VRB03KT 9000 SCT020
       
MUCC 151100Z 1512/1612 09005KT 9000 SCT020 
     BECMG 1515/1517 03008KT 
     BECMG 1601/1603 VRB03KT
       
MUHA 151100Z 1512/1612 34003KT 9000 FEW030 
     BECMG 1513/1515 36012KT 
     TEMPO 1520/1524 5000 SHRA FEW018CB BKN020 
     BECMG 1602/1604 36005KT
       
MUVR 151100Z 1512/1612 VRB03KT 9000 SCT020 
     BECMG 1515/1517 36010KT 
     BECMG 1601/1603 VRB03KT
       
MUCL 151100Z 1512/1524 36010KT 9000 SCT020